sensor_id;sensor_type;location;lat;lon;timestamp;P1;durP1;ratioP1;P2;durP2;ratioP2
74908;SDS011;63468;52.058;4.824;2023-04-24T00:01:13;24.73;;;23.05;;
74908;SDS011;63468;52.058;4.824;2023-04-24T00:03:40;18.65;;;17.38;;
74908;SDS011;63468;52.058;4.824;2023-04-24T00:06:06;34.42;;;32.22;;
74908;SDS011;63468;52.058;4.824;2023-04-24T00:08:33;32.63;;;30.73;;
74908;SDS011;63468;52.058;4.824;2023-04-24T00:10:58;30.45;;;28.73;;
74908;SDS011;63468;52.058;4.824;2023-04-24T00:13:24;22.77;;;21.27;;
74908;SDS011;63468;52.058;4.824;2023-04-24T00:15:49;28.38;;;26.77;;
74908;SDS011;63468;52.058;4.824;2023-04-24T00:18:15;23.52;;;21.70;;
74908;SDS011;63468;52.058;4.824;2023-04-24T00:20:40;27.50;;;25.70;;
74908;SDS011;63468;52.058;4.824;2023-04-24T00:23:05;25.60;;;23.90;;
74908;SDS011;63468;52.058;4.824;2023-04-24T00:25:31;26.38;;;24.67;;
74908;SDS011;63468;52.058;4.824;2023-04-24T00:27:56;31.58;;;29.45;;
74908;SDS011;63468;52.058;4.824;2023-04-24T00:30:22;28.80;;;26.67;;
74908;SDS011;63468;52.058;4.824;2023-04-24T00:32:47;30.10;;;27.80;;
74908;SDS011;63468;52.058;4.824;2023-04-24T00:35:12;31.60;;;29.30;;
74908;SDS011;63468;52.058;4.824;2023-04-24T00:37:39;28.73;;;26.63;;
74908;SDS011;63468;52.058;4.824;2023-04-24T00:40:05;34.28;;;31.92;;
74908;SDS011;63468;52.058;4.824;2023-04-24T00:42:31;35.65;;;33.45;;
74908;SDS011;63468;52.058;4.824;2023-04-24T00:44:56;29.52;;;27.27;;
74908;SDS011;63468;52.058;4.824;2023-04-24T00:47:22;28.48;;;26.08;;
74908;SDS011;63468;52.058;4.824;2023-04-24T00:49:47;29.20;;;27.20;;
74908;SDS011;63468;52.058;4.824;2023-04-24T00:52:13;32.97;;;30.52;;
74908;SDS011;63468;52.058;4.824;2023-04-24T00:54:42;32.25;;;29.98;;
74908;SDS011;63468;52.058;4.824;2023-04-24T00:57:10;23.27;;;21.15;;
74908;SDS011;63468;52.058;4.824;2023-04-24T00:59:36;30.75;;;28.33;;
74908;SDS011;63468;52.058;4.824;2023-04-24T01:02:02;34.13;;;31.48;;
74908;SDS011;63468;52.058;4.824;2023-04-24T01:04:27;33.90;;;31.52;;
74908;SDS011;63468;52.058;4.824;2023-04-24T01:06:52;32.35;;;29.55;;
74908;SDS011;63468;52.058;4.824;2023-04-24T01:09:21;32.15;;;29.33;;
74908;SDS011;63468;52.058;4.824;2023-04-24T01:11:47;30.52;;;28.08;;
74908;SDS011;63468;52.058;4.824;2023-04-24T01:14:12;29.08;;;26.92;;
74908;SDS011;63468;52.058;4.824;2023-04-24T01:16:37;29.23;;;27.10;;
74908;SDS011;63468;52.058;4.824;2023-04-24T01:19:03;26.20;;;23.55;;
74908;SDS011;63468;52.058;4.824;2023-04-24T01:21:29;31.45;;;29.55;;
74908;SDS011;63468;52.058;4.824;2023-04-24T01:23:55;32.90;;;30.48;;
74908;SDS011;63468;52.058;4.824;2023-04-24T01:26:21;29.42;;;27.20;;
74908;SDS011;63468;52.058;4.824;2023-04-24T01:28:47;27.63;;;25.40;;
74908;SDS011;63468;52.058;4.824;2023-04-24T01:31:12;31.95;;;30.05;;
74908;SDS011;63468;52.058;4.824;2023-04-24T01:33:38;31.40;;;29.25;;
74908;SDS011;63468;52.058;4.824;2023-04-24T01:36:04;27.40;;;25.80;;
74908;SDS011;63468;52.058;4.824;2023-04-24T01:38:29;23.90;;;22.00;;
74908;SDS011;63468;52.058;4.824;2023-04-24T01:40:55;34.40;;;32.03;;
74908;SDS011;63468;52.058;4.824;2023-04-24T01:43:20;31.95;;;29.25;;
74908;SDS011;63468;52.058;4.824;2023-04-24T01:45:46;31.67;;;29.13;;
74908;SDS011;63468;52.058;4.824;2023-04-24T01:48:12;34.17;;;31.30;;
74908;SDS011;63468;52.058;4.824;2023-04-24T01:50:37;29.98;;;27.35;;
74908;SDS011;63468;52.058;4.824;2023-04-24T01:53:03;31.15;;;28.63;;
74908;SDS011;63468;52.058;4.824;2023-04-24T01:55:28;33.03;;;30.58;;
74908;SDS011;63468;52.058;4.824;2023-04-24T01:57:54;30.08;;;27.85;;
74908;SDS011;63468;52.058;4.824;2023-04-24T02:00:20;29.35;;;27.15;;
74908;SDS011;63468;52.058;4.824;2023-04-24T02:02:46;24.95;;;22.83;;
74908;SDS011;63468;52.058;4.824;2023-04-24T02:05:11;31.38;;;28.67;;
74908;SDS011;63468;52.058;4.824;2023-04-24T02:07:36;27.67;;;25.48;;
74908;SDS011;63468;52.058;4.824;2023-04-24T02:10:02;30.98;;;28.98;;
74908;SDS011;63468;52.058;4.824;2023-04-24T02:12:29;24.73;;;22.92;;
74908;SDS011;63468;52.058;4.824;2023-04-24T02:14:54;27.38;;;25.48;;
74908;SDS011;63468;52.058;4.824;2023-04-24T02:17:19;26.80;;;24.90;;
74908;SDS011;63468;52.058;4.824;2023-04-24T02:19:45;26.13;;;24.20;;
74908;SDS011;63468;52.058;4.824;2023-04-24T02:22:11;27.33;;;25.23;;
74908;SDS011;63468;52.058;4.824;2023-04-24T02:24:36;30.65;;;28.48;;
74908;SDS011;63468;52.058;4.824;2023-04-24T02:27:02;26.98;;;24.88;;
74908;SDS011;63468;52.058;4.824;2023-04-24T02:29:28;30.92;;;28.45;;
74908;SDS011;63468;52.058;4.824;2023-04-24T02:31:53;27.42;;;25.50;;
74908;SDS011;63468;52.058;4.824;2023-04-24T02:34:18;30.13;;;27.92;;
74908;SDS011;63468;52.058;4.824;2023-04-24T02:36:43;25.42;;;23.52;;
74908;SDS011;63468;52.058;4.824;2023-04-24T02:39:09;30.80;;;28.40;;
74908;SDS011;63468;52.058;4.824;2023-04-24T02:41:34;26.52;;;24.13;;
74908;SDS011;63468;52.058;4.824;2023-04-24T02:43:59;28.55;;;26.42;;
74908;SDS011;63468;52.058;4.824;2023-04-24T02:46:25;30.52;;;28.02;;
74908;SDS011;63468;52.058;4.824;2023-04-24T02:48:50;26.30;;;24.02;;
74908;SDS011;63468;52.058;4.824;2023-04-24T02:51:16;32.00;;;29.05;;
74908;SDS011;63468;52.058;4.824;2023-04-24T02:53:41;28.35;;;25.65;;
74908;SDS011;63468;52.058;4.824;2023-04-24T02:56:06;30.67;;;27.85;;
74908;SDS011;63468;52.058;4.824;2023-04-24T02:58:32;27.52;;;25.02;;
74908;SDS011;63468;52.058;4.824;2023-04-24T03:00:57;30.63;;;27.85;;
74908;SDS011;63468;52.058;4.824;2023-04-24T03:03:22;24.80;;;22.33;;
74908;SDS011;63468;52.058;4.824;2023-04-24T03:05:48;25.15;;;22.65;;
74908;SDS011;63468;52.058;4.824;2023-04-24T03:08:14;32.05;;;29.05;;
74908;SDS011;63468;52.058;4.824;2023-04-24T03:10:41;33.45;;;30.63;;
74908;SDS011;63468;52.058;4.824;2023-04-24T03:13:07;30.63;;;28.13;;
74908;SDS011;63468;52.058;4.824;2023-04-24T03:15:32;28.08;;;25.70;;
74908;SDS011;63468;52.058;4.824;2023-04-24T03:17:57;25.63;;;23.40;;
74908;SDS011;63468;52.058;4.824;2023-04-24T03:20:23;28.50;;;26.50;;
74908;SDS011;63468;52.058;4.824;2023-04-24T03:22:48;25.70;;;23.73;;
74908;SDS011;63468;52.058;4.824;2023-04-24T03:25:13;27.27;;;24.95;;
74908;SDS011;63468;52.058;4.824;2023-04-24T03:27:39;22.10;;;20.40;;
74908;SDS011;63468;52.058;4.824;2023-04-24T03:30:05;24.13;;;22.48;;
74908;SDS011;63468;52.058;4.824;2023-04-24T03:32:33;24.23;;;22.58;;
74908;SDS011;63468;52.058;4.824;2023-04-24T03:34:58;21.67;;;20.13;;
74908;SDS011;63468;52.058;4.824;2023-04-24T03:37:24;25.45;;;23.85;;
74908;SDS011;63468;52.058;4.824;2023-04-24T03:39:49;22.75;;;21.38;;
74908;SDS011;63468;52.058;4.824;2023-04-24T03:42:14;23.77;;;22.38;;
74908;SDS011;63468;52.058;4.824;2023-04-24T03:44:40;26.73;;;25.13;;
74908;SDS011;63468;52.058;4.824;2023-04-24T03:47:05;23.75;;;22.17;;
74908;SDS011;63468;52.058;4.824;2023-04-24T03:49:30;26.17;;;24.48;;
74908;SDS011;63468;52.058;4.824;2023-04-24T03:51:56;16.48;;;15.25;;
74908;SDS011;63468;52.058;4.824;2023-04-24T03:54:21;19.73;;;18.52;;
74908;SDS011;63468;52.058;4.824;2023-04-24T03:56:46;21.17;;;19.88;;
74908;SDS011;63468;52.058;4.824;2023-04-24T03:59:12;26.73;;;25.23;;
74908;SDS011;63468;52.058;4.824;2023-04-24T04:01:38;20.73;;;19.58;;
74908;SDS011;63468;52.058;4.824;2023-04-24T04:04:04;18.70;;;17.50;;
74908;SDS011;63468;52.058;4.824;2023-04-24T04:06:30;19.23;;;18.13;;
74908;SDS011;63468;52.058;4.824;2023-04-24T04:08:58;22.08;;;20.58;;
74908;SDS011;63468;52.058;4.824;2023-04-24T04:11:24;21.17;;;19.75;;
74908;SDS011;63468;52.058;4.824;2023-04-24T04:13:49;23.23;;;21.73;;
74908;SDS011;63468;52.058;4.824;2023-04-24T04:16:15;20.13;;;18.67;;
74908;SDS011;63468;52.058;4.824;2023-04-24T04:18:43;25.02;;;23.63;;
74908;SDS011;63468;52.058;4.824;2023-04-24T04:21:08;27.52;;;25.83;;
74908;SDS011;63468;52.058;4.824;2023-04-24T04:23:34;25.77;;;24.27;;
74908;SDS011;63468;52.058;4.824;2023-04-24T04:25:59;25.88;;;24.23;;
74908;SDS011;63468;52.058;4.824;2023-04-24T04:28:25;25.40;;;23.90;;
74908;SDS011;63468;52.058;4.824;2023-04-24T04:30:51;29.58;;;27.88;;
74908;SDS011;63468;52.058;4.824;2023-04-24T04:33:20;26.10;;;24.60;;
74908;SDS011;63468;52.058;4.824;2023-04-24T04:35:46;20.30;;;19.00;;
74908;SDS011;63468;52.058;4.824;2023-04-24T04:38:14;23.50;;;22.13;;
74908;SDS011;63468;52.058;4.824;2023-04-24T04:40:40;22.08;;;20.77;;
74908;SDS011;63468;52.058;4.824;2023-04-24T04:43:05;23.67;;;22.20;;
74908;SDS011;63468;52.058;4.824;2023-04-24T04:45:31;22.58;;;21.17;;
74908;SDS011;63468;52.058;4.824;2023-04-24T04:47:57;16.85;;;15.65;;
74908;SDS011;63468;52.058;4.824;2023-04-24T04:50:23;26.08;;;24.50;;
74908;SDS011;63468;52.058;4.824;2023-04-24T04:52:48;21.50;;;20.30;;
74908;SDS011;63468;52.058;4.824;2023-04-24T04:55:13;24.60;;;23.30;;
74908;SDS011;63468;52.058;4.824;2023-04-24T04:57:39;23.48;;;22.17;;
74908;SDS011;63468;52.058;4.824;2023-04-24T05:00:05;20.08;;;18.80;;
74908;SDS011;63468;52.058;4.824;2023-04-24T05:02:31;26.00;;;24.40;;
74908;SDS011;63468;52.058;4.824;2023-04-24T05:04:57;25.63;;;24.20;;
74908;SDS011;63468;52.058;4.824;2023-04-24T05:07:22;20.83;;;19.33;;
74908;SDS011;63468;52.058;4.824;2023-04-24T05:09:47;26.63;;;25.15;;
74908;SDS011;63468;52.058;4.824;2023-04-24T05:12:13;19.02;;;17.73;;
74908;SDS011;63468;52.058;4.824;2023-04-24T05:14:38;26.83;;;25.33;;
74908;SDS011;63468;52.058;4.824;2023-04-24T05:17:03;15.05;;;13.95;;
74908;SDS011;63468;52.058;4.824;2023-04-24T05:19:29;21.75;;;20.38;;
74908;SDS011;63468;52.058;4.824;2023-04-24T05:21:54;21.00;;;19.55;;
74908;SDS011;63468;52.058;4.824;2023-04-24T05:24:19;18.63;;;17.27;;
74908;SDS011;63468;52.058;4.824;2023-04-24T05:26:45;26.25;;;24.40;;
74908;SDS011;63468;52.058;4.824;2023-04-24T05:29:10;29.10;;;27.20;;
74908;SDS011;63468;52.058;4.824;2023-04-24T05:31:36;26.50;;;24.70;;
74908;SDS011;63468;52.058;4.824;2023-04-24T05:34:02;22.90;;;21.08;;
74908;SDS011;63468;52.058;4.824;2023-04-24T05:36:27;21.25;;;19.55;;
74908;SDS011;63468;52.058;4.824;2023-04-24T05:38:52;22.77;;;20.88;;
74908;SDS011;63468;52.058;4.824;2023-04-24T05:41:18;30.65;;;28.52;;
74908;SDS011;63468;52.058;4.824;2023-04-24T05:43:43;28.33;;;26.05;;
74908;SDS011;63468;52.058;4.824;2023-04-24T05:46:08;38.03;;;34.90;;
74908;SDS011;63468;52.058;4.824;2023-04-24T05:48:34;29.92;;;26.90;;
74908;SDS011;63468;52.058;4.824;2023-04-24T05:50:59;33.33;;;30.27;;
74908;SDS011;63468;52.058;4.824;2023-04-24T05:53:24;35.20;;;26.52;;
74908;SDS011;63468;52.058;4.824;2023-04-24T05:55:50;33.05;;;26.88;;
74908;SDS011;63468;52.058;4.824;2023-04-24T05:58:15;37.10;;;33.22;;
74908;SDS011;63468;52.058;4.824;2023-04-24T06:00:40;31.88;;;28.27;;
74908;SDS011;63468;52.058;4.824;2023-04-24T06:03:07;31.05;;;26.95;;
74908;SDS011;63468;52.058;4.824;2023-04-24T06:05:33;29.70;;;26.10;;
74908;SDS011;63468;52.058;4.824;2023-04-24T06:07:58;30.33;;;25.50;;
74908;SDS011;63468;52.058;4.824;2023-04-24T06:10:23;30.95;;;23.75;;
74908;SDS011;63468;52.058;4.824;2023-04-24T06:12:49;30.88;;;27.55;;
74908;SDS011;63468;52.058;4.824;2023-04-24T06:15:14;32.28;;;26.70;;
74908;SDS011;63468;52.058;4.824;2023-04-24T06:17:40;33.63;;;27.35;;
74908;SDS011;63468;52.058;4.824;2023-04-24T06:20:05;32.67;;;29.40;;
74908;SDS011;63468;52.058;4.824;2023-04-24T06:22:32;27.08;;;24.52;;
74908;SDS011;63468;52.058;4.824;2023-04-24T06:24:58;25.83;;;23.05;;
74908;SDS011;63468;52.058;4.824;2023-04-24T06:27:24;28.92;;;22.60;;
74908;SDS011;63468;52.058;4.824;2023-04-24T06:29:49;34.28;;;28.48;;
74908;SDS011;63468;52.058;4.824;2023-04-24T06:32:19;28.92;;;26.00;;
74908;SDS011;63468;52.058;4.824;2023-04-24T06:34:45;29.52;;;26.52;;
74908;SDS011;63468;52.058;4.824;2023-04-24T06:37:11;26.48;;;22.83;;
74908;SDS011;63468;52.058;4.824;2023-04-24T06:39:36;29.95;;;27.05;;
74908;SDS011;63468;52.058;4.824;2023-04-24T06:42:01;33.60;;;30.15;;
74908;SDS011;63468;52.058;4.824;2023-04-24T06:44:27;33.03;;;24.33;;
74908;SDS011;63468;52.058;4.824;2023-04-24T06:46:52;27.98;;;21.33;;
74908;SDS011;63468;52.058;4.824;2023-04-24T06:49:17;22.90;;;20.27;;
74908;SDS011;63468;52.058;4.824;2023-04-24T06:51:43;27.70;;;23.50;;
74908;SDS011;63468;52.058;4.824;2023-04-24T06:54:08;29.13;;;19.85;;
74908;SDS011;63468;52.058;4.824;2023-04-24T06:56:33;23.55;;;21.05;;
74908;SDS011;63468;52.058;4.824;2023-04-24T06:58:59;30.63;;;21.02;;
74908;SDS011;63468;52.058;4.824;2023-04-24T07:01:24;35.95;;;24.48;;
74908;SDS011;63468;52.058;4.824;2023-04-24T07:03:50;29.23;;;23.55;;
74908;SDS011;63468;52.058;4.824;2023-04-24T07:06:15;25.88;;;23.17;;
74908;SDS011;63468;52.058;4.824;2023-04-24T07:08:43;24.67;;;19.98;;
74908;SDS011;63468;52.058;4.824;2023-04-24T07:11:08;27.50;;;22.00;;
74908;SDS011;63468;52.058;4.824;2023-04-24T07:13:34;22.98;;;20.63;;
74908;SDS011;63468;52.058;4.824;2023-04-24T07:16:00;25.20;;;19.02;;
74908;SDS011;63468;52.058;4.824;2023-04-24T07:18:25;21.83;;;19.45;;
74908;SDS011;63468;52.058;4.824;2023-04-24T07:20:51;27.00;;;18.88;;
74908;SDS011;63468;52.058;4.824;2023-04-24T07:23:17;23.02;;;19.60;;
74908;SDS011;63468;52.058;4.824;2023-04-24T07:25:42;23.02;;;18.40;;
74908;SDS011;63468;52.058;4.824;2023-04-24T07:28:08;22.33;;;18.30;;
74908;SDS011;63468;52.058;4.824;2023-04-24T07:30:33;29.63;;;20.48;;
74908;SDS011;63468;52.058;4.824;2023-04-24T07:32:59;20.35;;;16.08;;
74908;SDS011;63468;52.058;4.824;2023-04-24T07:35:25;23.05;;;19.80;;
74908;SDS011;63468;52.058;4.824;2023-04-24T07:37:53;24.63;;;19.52;;
74908;SDS011;63468;52.058;4.824;2023-04-24T07:40:18;21.27;;;18.60;;
74908;SDS011;63468;52.058;4.824;2023-04-24T07:42:44;24.45;;;17.67;;
74908;SDS011;63468;52.058;4.824;2023-04-24T07:45:10;22.27;;;17.23;;
74908;SDS011;63468;52.058;4.824;2023-04-24T07:47:35;21.58;;;14.93;;
74908;SDS011;63468;52.058;4.824;2023-04-24T07:50:02;21.95;;;15.10;;
74908;SDS011;63468;52.058;4.824;2023-04-24T07:52:27;17.35;;;15.50;;
74908;SDS011;63468;52.058;4.824;2023-04-24T07:54:54;22.08;;;15.30;;
74908;SDS011;63468;52.058;4.824;2023-04-24T07:57:23;20.05;;;15.90;;
74908;SDS011;63468;52.058;4.824;2023-04-24T07:59:49;15.25;;;13.82;;
74908;SDS011;63468;52.058;4.824;2023-04-24T08:02:14;14.73;;;13.30;;
74908;SDS011;63468;52.058;4.824;2023-04-24T08:04:40;21.83;;;14.00;;
74908;SDS011;63468;52.058;4.824;2023-04-24T08:07:05;21.13;;;13.93;;
74908;SDS011;63468;52.058;4.824;2023-04-24T08:09:31;17.02;;;13.13;;
74908;SDS011;63468;52.058;4.824;2023-04-24T08:11:56;19.65;;;13.25;;
74908;SDS011;63468;52.058;4.824;2023-04-24T08:14:21;17.17;;;13.95;;
74908;SDS011;63468;52.058;4.824;2023-04-24T08:16:47;18.85;;;13.45;;
74908;SDS011;63468;52.058;4.824;2023-04-24T08:19:12;19.13;;;13.70;;
74908;SDS011;63468;52.058;4.824;2023-04-24T08:21:37;18.55;;;12.63;;
74908;SDS011;63468;52.058;4.824;2023-04-24T08:24:02;18.73;;;12.93;;
74908;SDS011;63468;52.058;4.824;2023-04-24T08:26:30;21.38;;;13.23;;
74908;SDS011;63468;52.058;4.824;2023-04-24T08:28:55;16.13;;;12.23;;
74908;SDS011;63468;52.058;4.824;2023-04-24T08:31:21;18.42;;;13.25;;
74908;SDS011;63468;52.058;4.824;2023-04-24T08:33:47;16.08;;;11.98;;
74908;SDS011;63468;52.058;4.824;2023-04-24T08:36:13;16.40;;;12.80;;
74908;SDS011;63468;52.058;4.824;2023-04-24T08:38:38;18.50;;;12.38;;
74908;SDS011;63468;52.058;4.824;2023-04-24T08:41:03;15.75;;;12.50;;
74908;SDS011;63468;52.058;4.824;2023-04-24T08:43:29;14.80;;;12.80;;
74908;SDS011;63468;52.058;4.824;2023-04-24T08:45:56;13.18;;;11.88;;
74908;SDS011;63468;52.058;4.824;2023-04-24T08:48:24;16.10;;;13.35;;
74908;SDS011;63468;52.058;4.824;2023-04-24T08:50:53;15.05;;;13.05;;
74908;SDS011;63468;52.058;4.824;2023-04-24T08:53:18;15.00;;;13.65;;
74908;SDS011;63468;52.058;4.824;2023-04-24T08:55:46;14.48;;;13.00;;
74908;SDS011;63468;52.058;4.824;2023-04-24T08:58:12;14.73;;;13.43;;
74908;SDS011;63468;52.058;4.824;2023-04-24T09:00:38;15.45;;;12.88;;
74908;SDS011;63468;52.058;4.824;2023-04-24T09:03:04;14.40;;;12.77;;
74908;SDS011;63468;52.058;4.824;2023-04-24T09:05:30;15.15;;;13.70;;
74908;SDS011;63468;52.058;4.824;2023-04-24T09:07:56;14.93;;;13.43;;
74908;SDS011;63468;52.058;4.824;2023-04-24T09:10:23;14.25;;;12.93;;
74908;SDS011;63468;52.058;4.824;2023-04-24T09:12:52;14.20;;;12.93;;
74908;SDS011;63468;52.058;4.824;2023-04-24T09:15:20;14.60;;;13.40;;
74908;SDS011;63468;52.058;4.824;2023-04-24T09:17:46;14.70;;;13.40;;
74908;SDS011;63468;52.058;4.824;2023-04-24T09:20:12;15.20;;;13.77;;
74908;SDS011;63468;52.058;4.824;2023-04-24T09:22:37;14.05;;;12.63;;
74908;SDS011;63468;52.058;4.824;2023-04-24T09:25:04;13.73;;;12.40;;
74908;SDS011;63468;52.058;4.824;2023-04-24T09:27:33;13.95;;;11.98;;
74908;SDS011;63468;52.058;4.824;2023-04-24T09:29:59;14.20;;;12.75;;
74908;SDS011;63468;52.058;4.824;2023-04-24T09:32:25;13.50;;;12.02;;
74908;SDS011;63468;52.058;4.824;2023-04-24T09:37:40;12.38;;;11.32;;
74908;SDS011;63468;52.058;4.824;2023-04-24T09:40:18;13.02;;;11.77;;
74908;SDS011;63468;52.058;4.824;2023-04-24T09:42:52;13.13;;;12.00;;
74908;SDS011;63468;52.058;4.824;2023-04-24T09:45:18;14.10;;;12.30;;
74908;SDS011;63468;52.058;4.824;2023-04-24T09:47:44;12.73;;;11.70;;
74908;SDS011;63468;52.058;4.824;2023-04-24T09:52:45;13.13;;;12.02;;
74908;SDS011;63468;52.058;4.824;2023-04-24T09:55:32;13.30;;;11.93;;
74908;SDS011;63468;52.058;4.824;2023-04-24T09:57:58;13.73;;;12.60;;
74908;SDS011;63468;52.058;4.824;2023-04-24T10:00:30;13.32;;;12.02;;
74908;SDS011;63468;52.058;4.824;2023-04-24T10:03:00;12.32;;;11.13;;
74908;SDS011;63468;52.058;4.824;2023-04-24T10:05:30;12.25;;;11.30;;
74908;SDS011;63468;52.058;4.824;2023-04-24T10:08:07;12.60;;;11.32;;
74908;SDS011;63468;52.058;4.824;2023-04-24T10:10:39;13.18;;;11.82;;
74908;SDS011;63468;52.058;4.824;2023-04-24T10:13:07;13.77;;;12.55;;
74908;SDS011;63468;52.058;4.824;2023-04-24T10:15:32;13.43;;;12.20;;
74908;SDS011;63468;52.058;4.824;2023-04-24T10:17:58;12.60;;;11.52;;
74908;SDS011;63468;52.058;4.824;2023-04-24T10:20:25;13.00;;;11.90;;
74908;SDS011;63468;52.058;4.824;2023-04-24T10:22:54;14.45;;;12.70;;
74908;SDS011;63468;52.058;4.824;2023-04-24T10:25:20;13.40;;;12.32;;
74908;SDS011;63468;52.058;4.824;2023-04-24T10:27:47;13.70;;;12.60;;
74908;SDS011;63468;52.058;4.824;2023-04-24T10:30:13;13.70;;;12.38;;
74908;SDS011;63468;52.058;4.824;2023-04-24T10:32:39;13.57;;;12.30;;
74908;SDS011;63468;52.058;4.824;2023-04-24T10:35:07;15.05;;;13.57;;
74908;SDS011;63468;52.058;4.824;2023-04-24T10:37:35;13.73;;;12.38;;
74908;SDS011;63468;52.058;4.824;2023-04-24T10:40:11;13.65;;;12.45;;
74908;SDS011;63468;52.058;4.824;2023-04-24T10:42:39;14.23;;;13.18;;
74908;SDS011;63468;52.058;4.824;2023-04-24T10:45:06;14.43;;;13.05;;
74908;SDS011;63468;52.058;4.824;2023-04-24T10:47:41;14.40;;;13.30;;
74908;SDS011;63468;52.058;4.824;2023-04-24T10:50:10;16.45;;;14.82;;
74908;SDS011;63468;52.058;4.824;2023-04-24T10:52:45;15.68;;;14.65;;
74908;SDS011;63468;52.058;4.824;2023-04-24T10:55:12;15.45;;;14.25;;
74908;SDS011;63468;52.058;4.824;2023-04-24T10:57:39;15.32;;;14.07;;
74908;SDS011;63468;52.058;4.824;2023-04-24T11:00:15;16.13;;;14.82;;
74908;SDS011;63468;52.058;4.824;2023-04-24T11:02:41;15.30;;;14.15;;
74908;SDS011;63468;52.058;4.824;2023-04-24T11:10:43;14.00;;;12.82;;
74908;SDS011;63468;52.058;4.824;2023-04-24T11:13:09;13.77;;;12.45;;
74908;SDS011;63468;52.058;4.824;2023-04-24T11:15:35;18.70;;;12.57;;
74908;SDS011;63468;52.058;4.824;2023-04-24T11:18:00;12.80;;;11.52;;
74908;SDS011;63468;52.058;4.824;2023-04-24T11:20:25;14.27;;;12.80;;
74908;SDS011;63468;52.058;4.824;2023-04-24T11:22:52;13.60;;;12.40;;
74908;SDS011;63468;52.058;4.824;2023-04-24T11:25:19;16.45;;;11.73;;
74908;SDS011;63468;52.058;4.824;2023-04-24T11:27:47;12.45;;;10.93;;
74908;SDS011;63468;52.058;4.824;2023-04-24T11:30:17;11.10;;;10.10;;
74908;SDS011;63468;52.058;4.824;2023-04-24T11:32:43;12.50;;;11.40;;
74908;SDS011;63468;52.058;4.824;2023-04-24T11:35:12;11.38;;;10.38;;
74908;SDS011;63468;52.058;4.824;2023-04-24T11:37:40;11.95;;;10.85;;
74908;SDS011;63468;52.058;4.824;2023-04-24T11:40:07;11.95;;;10.68;;
74908;SDS011;63468;52.058;4.824;2023-04-24T11:42:37;12.38;;;11.15;;
74908;SDS011;63468;52.058;4.824;2023-04-24T11:47:36;12.25;;;11.27;;
74908;SDS011;63468;52.058;4.824;2023-04-24T11:50:01;13.23;;;11.70;;
74908;SDS011;63468;52.058;4.824;2023-04-24T11:52:28;14.18;;;12.77;;
74908;SDS011;63468;52.058;4.824;2023-04-24T11:54:54;11.85;;;10.55;;
74908;SDS011;63468;52.058;4.824;2023-04-24T11:57:20;12.52;;;11.23;;
74908;SDS011;63468;52.058;4.824;2023-04-24T11:59:46;16.92;;;12.38;;
74908;SDS011;63468;52.058;4.824;2023-04-24T12:02:25;20.55;;;14.35;;
74908;SDS011;63468;52.058;4.824;2023-04-24T12:04:52;11.90;;;10.68;;
74908;SDS011;63468;52.058;4.824;2023-04-24T12:07:18;12.30;;;11.05;;
74908;SDS011;63468;52.058;4.824;2023-04-24T12:09:44;12.50;;;11.27;;
74908;SDS011;63468;52.058;4.824;2023-04-24T12:12:11;12.70;;;11.20;;
74908;SDS011;63468;52.058;4.824;2023-04-24T12:17:13;15.30;;;13.35;;
74908;SDS011;63468;52.058;4.824;2023-04-24T12:19:44;15.02;;;12.10;;
74908;SDS011;63468;52.058;4.824;2023-04-24T12:22:13;24.35;;;11.90;;
74908;SDS011;63468;52.058;4.824;2023-04-24T12:24:58;12.93;;;11.68;;
74908;SDS011;63468;52.058;4.824;2023-04-24T12:27:29;13.43;;;12.10;;
74908;SDS011;63468;52.058;4.824;2023-04-24T12:29:55;15.95;;;11.73;;
74908;SDS011;63468;52.058;4.824;2023-04-24T12:32:21;16.45;;;12.20;;
74908;SDS011;63468;52.058;4.824;2023-04-24T12:34:47;17.90;;;11.95;;
74908;SDS011;63468;52.058;4.824;2023-04-24T12:37:12;19.05;;;11.90;;
74908;SDS011;63468;52.058;4.824;2023-04-24T12:39:38;13.20;;;11.63;;
74908;SDS011;63468;52.058;4.824;2023-04-24T12:42:03;23.73;;;14.02;;
74908;SDS011;63468;52.058;4.824;2023-04-24T12:44:32;15.65;;;13.50;;
74908;SDS011;63468;52.058;4.824;2023-04-24T12:46:59;18.25;;;13.18;;
74908;SDS011;63468;52.058;4.824;2023-04-24T12:49:25;17.88;;;14.32;;
74908;SDS011;63468;52.058;4.824;2023-04-24T12:51:50;18.98;;;16.25;;
74908;SDS011;63468;52.058;4.824;2023-04-24T12:54:16;19.88;;;16.13;;
74908;SDS011;63468;52.058;4.824;2023-04-24T12:56:41;14.68;;;12.98;;
74908;SDS011;63468;52.058;4.824;2023-04-24T12:59:06;18.58;;;14.90;;
74908;SDS011;63468;52.058;4.824;2023-04-24T13:01:32;17.83;;;15.85;;
74908;SDS011;63468;52.058;4.824;2023-04-24T13:03:57;16.70;;;15.05;;
74908;SDS011;63468;52.058;4.824;2023-04-24T13:06:22;17.23;;;15.73;;
74908;SDS011;63468;52.058;4.824;2023-04-24T13:08:48;17.77;;;16.27;;
74908;SDS011;63468;52.058;4.824;2023-04-24T13:11:13;17.00;;;15.40;;
74908;SDS011;63468;52.058;4.824;2023-04-24T13:13:39;19.02;;;17.15;;
74908;SDS011;63468;52.058;4.824;2023-04-24T13:16:04;17.52;;;16.02;;
74908;SDS011;63468;52.058;4.824;2023-04-24T13:18:30;19.08;;;15.50;;
74908;SDS011;63468;52.058;4.824;2023-04-24T13:20:55;17.50;;;15.80;;
74908;SDS011;63468;52.058;4.824;2023-04-24T13:23:20;15.77;;;14.10;;
74908;SDS011;63468;52.058;4.824;2023-04-24T13:25:47;17.95;;;16.17;;
74908;SDS011;63468;52.058;4.824;2023-04-24T13:28:13;16.65;;;15.10;;
74908;SDS011;63468;52.058;4.824;2023-04-24T13:30:38;16.48;;;14.82;;
74908;SDS011;63468;52.058;4.824;2023-04-24T13:33:03;19.48;;;14.55;;
74908;SDS011;63468;52.058;4.824;2023-04-24T13:35:29;15.40;;;14.02;;
74908;SDS011;63468;52.058;4.824;2023-04-24T13:37:54;14.75;;;13.35;;
74908;SDS011;63468;52.058;4.824;2023-04-24T13:40:19;17.70;;;15.98;;
74908;SDS011;63468;52.058;4.824;2023-04-24T13:42:45;17.67;;;16.25;;
74908;SDS011;63468;52.058;4.824;2023-04-24T13:45:10;17.42;;;15.88;;
74908;SDS011;63468;52.058;4.824;2023-04-24T13:47:36;16.30;;;14.32;;
74908;SDS011;63468;52.058;4.824;2023-04-24T13:50:01;14.73;;;13.25;;
74908;SDS011;63468;52.058;4.824;2023-04-24T13:52:27;17.08;;;15.10;;
74908;SDS011;63468;52.058;4.824;2023-04-24T13:54:52;15.80;;;14.30;;
74908;SDS011;63468;52.058;4.824;2023-04-24T13:57:17;18.13;;;16.15;;
74908;SDS011;63468;52.058;4.824;2023-04-24T13:59:43;18.10;;;14.85;;
74908;SDS011;63468;52.058;4.824;2023-04-24T14:02:08;18.20;;;14.43;;
74908;SDS011;63468;52.058;4.824;2023-04-24T14:04:33;14.93;;;13.30;;
74908;SDS011;63468;52.058;4.824;2023-04-24T14:06:59;15.15;;;13.50;;
74908;SDS011;63468;52.058;4.824;2023-04-24T14:09:24;17.88;;;15.95;;
74908;SDS011;63468;52.058;4.824;2023-04-24T14:11:49;15.32;;;13.50;;
74908;SDS011;63468;52.058;4.824;2023-04-24T14:14:16;19.60;;;13.45;;
74908;SDS011;63468;52.058;4.824;2023-04-24T14:16:41;15.52;;;12.93;;
74908;SDS011;63468;52.058;4.824;2023-04-24T14:19:07;16.05;;;12.50;;
74908;SDS011;63468;52.058;4.824;2023-04-24T14:21:32;15.73;;;12.15;;
74908;SDS011;63468;52.058;4.824;2023-04-24T14:23:58;13.75;;;11.05;;
74908;SDS011;63468;52.058;4.824;2023-04-24T14:26:23;13.57;;;10.50;;
74908;SDS011;63468;52.058;4.824;2023-04-24T14:28:49;17.65;;;10.27;;
74908;SDS011;63468;52.058;4.824;2023-04-24T14:31:14;14.75;;;10.43;;